sensor_id;sensor_type;location;lat;lon;timestamp;pressure;altitude;pressure_sealevel;temperature;humidity
22572;BME280;11452;53.368;14.658;2023-01-15T00:01:57;99098.50;;;9.07;89.69
22572;BME280;11452;53.368;14.658;2023-01-15T00:07:02;99091.34;;;9.13;89.82
22572;BME280;11452;53.368;14.658;2023-01-15T00:12:08;99064.94;;;9.15;90.00
22572;BME280;11452;53.368;14.658;2023-01-15T00:17:15;99055.88;;;9.23;90.31
22572;BME280;11452;53.368;14.658;2023-01-15T00:22:20;99066.66;;;9.33;90.03
22572;BME280;11452;53.368;14.658;2023-01-15T00:27:26;99061.47;;;9.37;89.91
22572;BME280;11452;53.368;14.658;2023-01-15T00:32:44;99052.23;;;9.30;89.90
22572;BME280;11452;53.368;14.658;2023-01-15T00:37:50;99042.92;;;9.35;89.91
22572;BME280;11452;53.368;14.658;2023-01-15T00:42:56;99052.02;;;9.44;89.96
22572;BME280;11452;53.368;14.658;2023-01-15T00:48:01;99037.59;;;9.52;89.98
22572;BME280;11452;53.368;14.658;2023-01-15T00:53:07;99023.29;;;9.59;89.84
22572;BME280;11452;53.368;14.658;2023-01-15T00:58:12;99025.11;;;9.58;89.71
22572;BME280;11452;53.368;14.658;2023-01-15T01:03:18;99018.17;;;9.67;89.72
22572;BME280;11452;53.368;14.658;2023-01-15T01:08:23;99006.78;;;9.70;89.71
22572;BME280;11452;53.368;14.658;2023-01-15T01:13:29;99012.11;;;9.70;89.67
22572;BME280;11452;53.368;14.658;2023-01-15T01:18:34;99000.71;;;9.68;89.46
22572;BME280;11452;53.368;14.658;2023-01-15T01:23:40;99015.87;;;9.68;89.38
22572;BME280;11452;53.368;14.658;2023-01-15T01:28:52;99018.90;;;9.75;89.39
22572;BME280;11452;53.368;14.658;2023-01-15T01:33:59;99022.54;;;9.79;89.43
22572;BME280;11452;53.368;14.658;2023-01-15T01:39:05;99011.75;;;9.75;89.13
22572;BME280;11452;53.368;14.658;2023-01-15T01:49:39;99003.63;;;9.82;89.12
22572;BME280;11452;53.368;14.658;2023-01-15T01:54:47;98951.48;;;9.72;88.99
22572;BME280;11452;53.368;14.658;2023-01-15T01:59:55;98995.98;;;9.72;88.84
22572;BME280;11452;53.368;14.658;2023-01-15T02:05:03;98985.44;;;9.76;88.74
22572;BME280;11452;53.368;14.658;2023-01-15T02:10:14;98979.25;;;9.81;88.70
22572;BME280;11452;53.368;14.658;2023-01-15T02:15:29;98978.03;;;9.80;88.83
22572;BME280;11452;53.368;14.658;2023-01-15T02:20:34;98988.10;;;9.76;88.78
22572;BME280;11452;53.368;14.658;2023-01-15T02:31:22;98960.70;;;9.80;89.10
22572;BME280;11452;53.368;14.658;2023-01-15T02:36:29;98982.97;;;9.90;88.87
22572;BME280;11452;53.368;14.658;2023-01-15T02:41:40;98972.91;;;9.88;88.83
22572;BME280;11452;53.368;14.658;2023-01-15T02:46:45;98980.78;;;9.95;88.89
22572;BME280;11452;53.368;14.658;2023-01-15T02:52:09;98969.70;;;10.05;88.82
22572;BME280;11452;53.368;14.658;2023-01-15T02:57:10;98962.90;;;10.06;88.29
22572;BME280;11452;53.368;14.658;2023-01-15T03:02:21;98971.02;;;10.11;88.56
22572;BME280;11452;53.368;14.658;2023-01-15T03:07:36;98955.24;;;10.13;88.38
22572;BME280;11452;53.368;14.658;2023-01-15T03:12:50;98955.35;;;10.17;88.29
22572;BME280;11452;53.368;14.658;2023-01-15T03:18:14;98956.69;;;10.17;87.89
22572;BME280;11452;53.368;14.658;2023-01-15T03:23:23;98953.52;;;10.23;87.93
22572;BME280;11452;53.368;14.658;2023-01-15T03:28:32;98947.55;;;10.31;87.77
22572;BME280;11452;53.368;14.658;2023-01-15T03:33:41;98955.30;;;10.34;88.01
22572;BME280;11452;53.368;14.658;2023-01-15T03:38:48;98947.12;;;10.41;87.87
22572;BME280;11452;53.368;14.658;2023-01-15T03:54:56;98947.06;;;10.31;88.10
22572;BME280;11452;53.368;14.658;2023-01-15T04:00:03;98943.69;;;10.24;88.22
22572;BME280;11452;53.368;14.658;2023-01-15T04:05:10;98947.20;;;10.24;88.42
22572;BME280;11452;53.368;14.658;2023-01-15T04:10:16;98943.07;;;10.26;88.77
22572;BME280;11452;53.368;14.658;2023-01-15T04:15:23;98953.64;;;10.22;88.85
22572;BME280;11452;53.368;14.658;2023-01-15T04:20:29;98961.29;;;10.21;89.27
22572;BME280;11452;53.368;14.658;2023-01-15T04:25:36;99009.01;;;10.20;89.42
22572;BME280;11452;53.368;14.658;2023-01-15T04:30:41;98997.23;;;10.05;89.10
22572;BME280;11452;53.368;14.658;2023-01-15T04:35:47;99035.39;;;9.80;89.22
22572;BME280;11452;53.368;14.658;2023-01-15T04:40:53;99033.84;;;9.60;88.88
22572;BME280;11452;53.368;14.658;2023-01-15T04:46:21;99048.98;;;9.26;88.29
22572;BME280;11452;53.368;14.658;2023-01-15T04:51:27;99073.41;;;9.03;88.56
22572;BME280;11452;53.368;14.658;2023-01-15T04:56:44;99070.31;;;8.80;88.23
22572;BME280;11452;53.368;14.658;2023-01-15T05:01:44;99086.18;;;8.82;88.62
22572;BME280;11452;53.368;14.658;2023-01-15T05:06:51;99105.28;;;8.46;87.35
22572;BME280;11452;53.368;14.658;2023-01-15T05:11:56;99105.17;;;8.11;87.64
22572;BME280;11452;53.368;14.658;2023-01-15T05:17:02;99070.33;;;7.90;87.07
22572;BME280;11452;53.368;14.658;2023-01-15T05:22:07;99088.05;;;7.84;86.88
22572;BME280;11452;53.368;14.658;2023-01-15T05:27:13;99090.80;;;7.77;86.37
22572;BME280;11452;53.368;14.658;2023-01-15T05:32:19;99093.47;;;7.83;86.72
22572;BME280;11452;53.368;14.658;2023-01-15T05:37:24;99090.81;;;7.83;86.42
22572;BME280;11452;53.368;14.658;2023-01-15T05:42:30;99100.13;;;7.83;86.13
22572;BME280;11452;53.368;14.658;2023-01-15T05:47:35;99095.20;;;7.71;85.57
22572;BME280;11452;53.368;14.658;2023-01-15T05:52:41;99089.73;;;7.67;85.46
22572;BME280;11452;53.368;14.658;2023-01-15T05:57:48;99087.28;;;7.64;85.30
22572;BME280;11452;53.368;14.658;2023-01-15T06:02:53;99097.41;;;7.59;85.04
22572;BME280;11452;53.368;14.658;2023-01-15T06:07:59;99092.69;;;7.57;84.91
22572;BME280;11452;53.368;14.658;2023-01-15T06:13:04;99092.52;;;7.53;84.60
22572;BME280;11452;53.368;14.658;2023-01-15T06:18:10;99100.50;;;7.53;84.47
22572;BME280;11452;53.368;14.658;2023-01-15T06:23:18;99112.45;;;7.53;84.48
22572;BME280;11452;53.368;14.658;2023-01-15T06:28:23;99101.28;;;7.48;84.12
22572;BME280;11452;53.368;14.658;2023-01-15T06:33:29;99105.12;;;7.56;84.31
22572;BME280;11452;53.368;14.658;2023-01-15T06:38:34;99103.63;;;7.52;84.11
22572;BME280;11452;53.368;14.658;2023-01-15T06:43:40;99110.76;;;7.52;83.77
22572;BME280;11452;53.368;14.658;2023-01-15T06:49:03;99109.09;;;7.44;83.39
22572;BME280;11452;53.368;14.658;2023-01-15T06:54:08;99122.88;;;7.30;83.13
22572;BME280;11452;53.368;14.658;2023-01-15T06:59:14;99118.74;;;7.39;83.56
22572;BME280;11452;53.368;14.658;2023-01-15T07:04:19;99123.41;;;7.36;83.20
22572;BME280;11452;53.368;14.658;2023-01-15T07:09:25;99121.34;;;7.34;82.91
22572;BME280;11452;53.368;14.658;2023-01-15T07:14:30;99140.03;;;7.19;82.73
22572;BME280;11452;53.368;14.658;2023-01-15T07:19:36;99134.38;;;7.11;82.68
22572;BME280;11452;53.368;14.658;2023-01-15T07:24:42;99098.31;;;7.27;82.71
22572;BME280;11452;53.368;14.658;2023-01-15T07:29:47;99111.30;;;7.19;82.12
22572;BME280;11452;53.368;14.658;2023-01-15T07:34:54;99110.27;;;7.27;82.41
22572;BME280;11452;53.368;14.658;2023-01-15T07:40:00;99118.98;;;7.16;82.19
22572;BME280;11452;53.368;14.658;2023-01-15T07:45:07;99126.07;;;7.23;82.33
22572;BME280;11452;53.368;14.658;2023-01-15T07:50:31;99117.41;;;7.39;83.09
22572;BME280;11452;53.368;14.658;2023-01-15T07:55:36;99123.61;;;7.45;82.37
22572;BME280;11452;53.368;14.658;2023-01-15T08:00:42;99133.34;;;7.52;82.38
22572;BME280;11452;53.368;14.658;2023-01-15T08:05:47;99128.30;;;7.54;82.49
22572;BME280;11452;53.368;14.658;2023-01-15T08:10:53;99123.81;;;7.68;84.34
22572;BME280;11452;53.368;14.658;2023-01-15T08:16:16;99124.50;;;7.64;82.08
22572;BME280;11452;53.368;14.658;2023-01-15T08:21:22;99122.72;;;7.52;81.87
22572;BME280;11452;53.368;14.658;2023-01-15T08:26:27;99139.90;;;7.41;81.47
22572;BME280;11452;53.368;14.658;2023-01-15T08:31:33;99145.63;;;7.35;81.98
22572;BME280;11452;53.368;14.658;2023-01-15T08:36:38;99150.56;;;7.34;81.62
22572;BME280;11452;53.368;14.658;2023-01-15T08:41:44;99153.12;;;7.35;81.89
22572;BME280;11452;53.368;14.658;2023-01-15T08:46:51;99154.08;;;7.34;81.48
22572;BME280;11452;53.368;14.658;2023-01-15T08:51:56;99165.69;;;7.26;81.17
22572;BME280;11452;53.368;14.658;2023-01-15T08:57:02;99148.28;;;7.35;81.84
22572;BME280;11452;53.368;14.658;2023-01-15T09:02:11;99143.61;;;7.38;81.92
22572;BME280;11452;53.368;14.658;2023-01-15T09:07:18;99153.63;;;7.27;80.93
22572;BME280;11452;53.368;14.658;2023-01-15T09:12:24;99152.44;;;7.39;81.57
22572;BME280;11452;53.368;14.658;2023-01-15T09:17:31;99166.73;;;7.69;83.88
22572;BME280;11452;53.368;14.658;2023-01-15T09:22:37;99177.55;;;7.60;80.91
22572;BME280;11452;53.368;14.658;2023-01-15T09:27:42;99180.23;;;7.53;80.97
22572;BME280;11452;53.368;14.658;2023-01-15T09:32:48;99183.06;;;7.57;80.96
22572;BME280;11452;53.368;14.658;2023-01-15T09:37:54;99177.55;;;7.60;80.62
22572;BME280;11452;53.368;14.658;2023-01-15T09:48:46;99158.64;;;7.45;80.30
22572;BME280;11452;53.368;14.658;2023-01-15T09:59:12;99168.65;;;7.54;80.48
22572;BME280;11452;53.368;14.658;2023-01-15T10:04:19;99172.88;;;7.44;80.43
22572;BME280;11452;53.368;14.658;2023-01-15T10:09:28;99161.22;;;7.59;80.84
22572;BME280;11452;53.368;14.658;2023-01-15T10:14:49;99171.84;;;7.59;80.08
22572;BME280;11452;53.368;14.658;2023-01-15T10:19:54;99176.45;;;7.62;80.26
22572;BME280;11452;53.368;14.658;2023-01-15T10:25:03;99177.73;;;7.70;80.44
22572;BME280;11452;53.368;14.658;2023-01-15T10:35:53;99183.04;;;7.82;79.42
22572;BME280;11452;53.368;14.658;2023-01-15T10:46:25;99170.80;;;7.80;79.39
22572;BME280;11452;53.368;14.658;2023-01-15T10:51:42;99174.48;;;7.84;79.50
22572;BME280;11452;53.368;14.658;2023-01-15T11:07:43;99175.66;;;7.93;78.62
22572;BME280;11452;53.368;14.658;2023-01-15T11:12:53;99171.50;;;7.89;78.77
22572;BME280;11452;53.368;14.658;2023-01-15T11:18:29;99175.20;;;7.99;78.55
22572;BME280;11452;53.368;14.658;2023-01-15T11:23:52;99171.47;;;8.14;78.07
22572;BME280;11452;53.368;14.658;2023-01-15T11:29:10;99165.41;;;8.12;78.23
22572;BME280;11452;53.368;14.658;2023-01-15T11:34:18;99153.44;;;8.12;77.52
22572;BME280;11452;53.368;14.658;2023-01-15T11:39:26;99158.75;;;8.12;77.38
22572;BME280;11452;53.368;14.658;2023-01-15T11:44:34;99172.36;;;8.33;76.92
22572;BME280;11452;53.368;14.658;2023-01-15T11:49:57;99156.82;;;8.45;77.21
22572;BME280;11452;53.368;14.658;2023-01-15T11:55:22;99172.77;;;8.27;75.72
22572;BME280;11452;53.368;14.658;2023-01-15T12:00:32;99165.84;;;8.24;75.66
22572;BME280;11452;53.368;14.658;2023-01-15T12:05:43;99159.92;;;8.39;74.93
22572;BME280;11452;53.368;14.658;2023-01-15T12:11:03;99165.06;;;8.48;75.21
22572;BME280;11452;53.368;14.658;2023-01-15T12:16:36;99167.99;;;8.50;74.77
22572;BME280;11452;53.368;14.658;2023-01-15T12:32:32;99147.48;;;8.63;74.34
22572;BME280;11452;53.368;14.658;2023-01-15T12:37:46;99152.10;;;8.67;73.21
22572;BME280;11452;53.368;14.658;2023-01-15T12:42:53;99160.69;;;8.65;72.59
22572;BME280;11452;53.368;14.658;2023-01-15T12:48:33;99152.36;;;8.70;72.88
22572;BME280;11452;53.368;14.658;2023-01-15T12:53:48;99149.84;;;8.79;72.51
22572;BME280;11452;53.368;14.658;2023-01-15T13:04:29;99147.41;;;8.71;71.51
22572;BME280;11452;53.368;14.658;2023-01-15T13:09:43;99133.95;;;8.72;70.95
22572;BME280;11452;53.368;14.658;2023-01-15T13:14:49;99146.19;;;8.75;70.83
22572;BME280;11452;53.368;14.658;2023-01-15T13:36:12;99152.25;;;8.71;69.11
22572;BME280;11452;53.368;14.658;2023-01-15T13:41:20;99158.47;;;8.59;68.34
22572;BME280;11452;53.368;14.658;2023-01-15T13:46:45;99154.36;;;8.60;68.13
22572;BME280;11452;53.368;14.658;2023-01-15T13:51:52;99150.30;;;8.67;68.76
22572;BME280;11452;53.368;14.658;2023-01-15T13:57:22;99149.19;;;8.64;67.62
22572;BME280;11452;53.368;14.658;2023-01-15T14:02:25;99153.83;;;8.50;67.38
22572;BME280;11452;53.368;14.658;2023-01-15T14:07:33;99150.95;;;8.58;67.63
22572;BME280;11452;53.368;14.658;2023-01-15T14:18:11;99152.88;;;8.56;66.61
22572;BME280;11452;53.368;14.658;2023-01-15T14:34:23;99149.49;;;8.36;65.58
22572;BME280;11452;53.368;14.658;2023-01-15T14:39:38;99184.73;;;8.27;65.36
22572;BME280;11452;53.368;14.658;2023-01-15T14:44:45;99181.86;;;8.30;65.19
22572;BME280;11452;53.368;14.658;2023-01-15T14:50:20;99182.75;;;8.49;65.39
22572;BME280;11452;53.368;14.658;2023-01-15T14:55:08;99187.55;;;8.44;65.01
22572;BME280;11452;53.368;14.658;2023-01-15T15:00:17;99197.19;;;8.39;64.58
22572;BME280;11452;53.368;14.658;2023-01-15T15:05:24;99215.34;;;8.27;64.47
22572;BME280;11452;53.368;14.658;2023-01-15T15:10:39;99202.36;;;8.22;64.31
22572;BME280;11452;53.368;14.658;2023-01-15T15:15:55;99203.61;;;8.11;64.18
22572;BME280;11452;53.368;14.658;2023-01-15T15:21:17;99192.59;;;8.10;64.28
22572;BME280;11452;53.368;14.658;2023-01-15T15:26:32;99188.84;;;7.94;63.93
22572;BME280;11452;53.368;14.658;2023-01-15T15:31:49;99197.95;;;7.97;64.24
22572;BME280;11452;53.368;14.658;2023-01-15T15:36:46;99197.20;;;7.95;64.15
22572;BME280;11452;53.368;14.658;2023-01-15T15:41:53;99198.69;;;7.87;64.22
22572;BME280;11452;53.368;14.658;2023-01-15T15:47:23;99195.55;;;7.87;63.94
22572;BME280;11452;53.368;14.658;2023-01-15T15:52:50;99184.27;;;7.84;64.08
22572;BME280;11452;53.368;14.658;2023-01-15T15:57:59;99180.77;;;7.71;63.67
22572;BME280;11452;53.368;14.658;2023-01-15T16:03:06;99187.69;;;7.73;63.81
22572;BME280;11452;53.368;14.658;2023-01-15T16:08:17;99178.31;;;7.93;64.99
22572;BME280;11452;53.368;14.658;2023-01-15T16:13:35;99183.39;;;8.58;66.26
22572;BME280;11452;53.368;14.658;2023-01-15T16:18:58;99177.82;;;8.79;66.84
22572;BME280;11452;53.368;14.658;2023-01-15T16:24:06;99184.13;;;9.13;66.40
22572;BME280;11452;53.368;14.658;2023-01-15T16:29:23;99183.91;;;9.16;65.65
22572;BME280;11452;53.368;14.658;2023-01-15T16:34:29;99174.92;;;9.06;64.32
22572;BME280;11452;53.368;14.658;2023-01-15T16:39:39;99174.93;;;8.40;63.75
22572;BME280;11452;53.368;14.658;2023-01-15T16:44:53;99174.51;;;8.15;63.78
22572;BME280;11452;53.368;14.658;2023-01-15T16:50:24;99178.25;;;7.87;63.74
22572;BME280;11452;53.368;14.658;2023-01-15T16:55:46;99183.71;;;7.60;63.79
22572;BME280;11452;53.368;14.658;2023-01-15T17:00:50;99186.27;;;7.42;64.07
22572;BME280;11452;53.368;14.658;2023-01-15T17:06:01;99172.98;;;7.29;64.29
22572;BME280;11452;53.368;14.658;2023-01-15T17:11:17;99171.63;;;7.37;64.66
22572;BME280;11452;53.368;14.658;2023-01-15T17:16:23;99163.20;;;7.30;64.70
22572;BME280;11452;53.368;14.658;2023-01-15T17:21:29;99180.27;;;7.20;64.67
22572;BME280;11452;53.368;14.658;2023-01-15T17:26:35;99178.38;;;7.15;64.91
22572;BME280;11452;53.368;14.658;2023-01-15T17:31:41;99164.92;;;7.11;65.07
22572;BME280;11452;53.368;14.658;2023-01-15T17:36:47;99164.55;;;7.10;65.03
22572;BME280;11452;53.368;14.658;2023-01-15T17:41:52;99176.70;;;7.07;64.94
22572;BME280;11452;53.368;14.658;2023-01-15T17:46:58;99187.28;;;7.02;65.03
22572;BME280;11452;53.368;14.658;2023-01-15T17:52:05;99185.59;;;7.01;64.96
22572;BME280;11452;53.368;14.658;2023-01-15T17:57:11;99191.11;;;6.90;65.13
22572;BME280;11452;53.368;14.658;2023-01-15T18:02:37;99193.48;;;6.88;65.06
22572;BME280;11452;53.368;14.658;2023-01-15T18:08:04;99196.28;;;6.86;64.95
22572;BME280;11452;53.368;14.658;2023-01-15T18:13:10;99197.42;;;6.82;64.99
22572;BME280;11452;53.368;14.658;2023-01-15T18:18:16;99205.11;;;6.80;64.86
22572;BME280;11452;53.368;14.658;2023-01-15T18:23:21;99203.70;;;6.74;64.75
22572;BME280;11452;53.368;14.658;2023-01-15T18:28:31;99196.45;;;6.64;65.01
22572;BME280;11452;53.368;14.658;2023-01-15T18:33:37;99201.66;;;6.65;65.06
22572;BME280;11452;53.368;14.658;2023-01-15T18:38:43;99201.57;;;6.59;65.06
22572;BME280;11452;53.368;14.658;2023-01-15T18:43:50;99190.02;;;6.53;65.11
22572;BME280;11452;53.368;14.658;2023-01-15T18:49:14;99196.78;;;6.45;65.15
22572;BME280;11452;53.368;14.658;2023-01-15T18:54:19;99192.42;;;6.44;65.32
22572;BME280;11452;53.368;14.658;2023-01-15T18:59:25;99187.13;;;6.37;65.37
22572;BME280;11452;53.368;14.658;2023-01-15T19:04:30;99196.59;;;6.41;65.45
22572;BME280;11452;53.368;14.658;2023-01-15T19:09:37;99198.39;;;6.47;65.46
22572;BME280;11452;53.368;14.658;2023-01-15T19:14:42;99203.42;;;6.45;65.44
22572;BME280;11452;53.368;14.658;2023-01-15T19:20:08;99201.91;;;6.41;65.39
22572;BME280;11452;53.368;14.658;2023-01-15T19:25:14;99196.59;;;6.41;65.29
22572;BME280;11452;53.368;14.658;2023-01-15T19:30:21;99199.53;;;6.43;65.28
22572;BME280;11452;53.368;14.658;2023-01-15T19:35:27;99199.72;;;6.47;65.17
22572;BME280;11452;53.368;14.658;2023-01-15T19:40:33;99204.23;;;6.52;65.20
22572;BME280;11452;53.368;14.658;2023-01-15T19:45:42;99215.94;;;6.70;66.31
22572;BME280;11452;53.368;14.658;2023-01-15T19:51:06;99219.01;;;6.64;64.96
22572;BME280;11452;53.368;14.658;2023-01-15T19:56:12;99221.14;;;6.71;65.00
22572;BME280;11452;53.368;14.658;2023-01-15T20:01:17;99258.59;;;6.74;64.86
22572;BME280;11452;53.368;14.658;2023-01-15T20:06:23;99218.95;;;6.78;64.74
22572;BME280;11452;53.368;14.658;2023-01-15T20:11:28;99232.24;;;6.71;64.37
22572;BME280;11452;53.368;14.658;2023-01-15T20:16:35;99230.80;;;6.79;64.47
22572;BME280;11452;53.368;14.658;2023-01-15T20:21:41;99237.34;;;6.81;64.44
22572;BME280;11452;53.368;14.658;2023-01-15T20:26:46;99250.52;;;6.82;64.37
22572;BME280;11452;53.368;14.658;2023-01-15T20:31:52;99242.66;;;6.81;64.19
22572;BME280;11452;53.368;14.658;2023-01-15T20:36:58;99231.95;;;6.75;64.10
22572;BME280;11452;53.368;14.658;2023-01-15T20:42:05;99235.64;;;6.80;64.23
22572;BME280;11452;53.368;14.658;2023-01-15T20:47:29;99236.11;;;6.79;64.17
22572;BME280;11452;53.368;14.658;2023-01-15T20:52:54;99231.09;;;6.82;64.05
22572;BME280;11452;53.368;14.658;2023-01-15T20:58:02;99222.09;;;6.77;63.92
22572;BME280;11452;53.368;14.658;2023-01-15T21:03:10;99214.80;;;6.74;64.03
22572;BME280;11452;53.368;14.658;2023-01-15T21:08:15;99223.19;;;7.07;63.60
22572;BME280;11452;53.368;14.658;2023-01-15T21:13:23;99228.77;;;6.90;64.02
22572;BME280;11452;53.368;14.658;2023-01-15T21:18:30;99226.48;;;6.91;64.17
22572;BME280;11452;53.368;14.658;2023-01-15T21:23:35;99238.60;;;7.02;64.04
22572;BME280;11452;53.368;14.658;2023-01-15T21:28:41;99248.38;;;7.02;63.86
22572;BME280;11452;53.368;14.658;2023-01-15T21:33:48;99240.36;;;7.09;63.90
22572;BME280;11452;53.368;14.658;2023-01-15T21:38:55;99248.50;;;7.13;63.80
22572;BME280;11452;53.368;14.658;2023-01-15T21:44:02;99247.83;;;7.16;63.80
22572;BME280;11452;53.368;14.658;2023-01-15T21:49:25;99254.80;;;7.24;63.61
22572;BME280;11452;53.368;14.658;2023-01-15T21:54:31;99258.78;;;7.24;63.40
22572;BME280;11452;53.368;14.658;2023-01-15T21:59:39;99254.22;;;7.26;63.33
22572;BME280;11452;53.368;14.658;2023-01-15T22:04:44;99265.56;;;7.23;63.42
22572;BME280;11452;53.368;14.658;2023-01-15T22:09:50;99267.78;;;7.29;63.25
22572;BME280;11452;53.368;14.658;2023-01-15T22:14:56;99265.60;;;7.28;63.37
22572;BME280;11452;53.368;14.658;2023-01-15T22:20:02;99275.28;;;7.29;63.36
22572;BME280;11452;53.368;14.658;2023-01-15T22:25:09;99276.41;;;7.33;63.10
22572;BME280;11452;53.368;14.658;2023-01-15T22:30:16;99291.50;;;7.32;63.08
22572;BME280;11452;53.368;14.658;2023-01-15T22:35:22;99280.95;;;7.38;63.14
22572;BME280;11452;53.368;14.658;2023-01-15T22:40:28;99280.89;;;7.45;63.01
22572;BME280;11452;53.368;14.658;2023-01-15T22:45:33;99283.91;;;7.53;63.16
22572;BME280;11452;53.368;14.658;2023-01-15T22:50:39;99289.22;;;7.53;62.86
22572;BME280;11452;53.368;14.658;2023-01-15T22:55:44;99296.06;;;7.50;62.74
22572;BME280;11452;53.368;14.658;2023-01-15T23:00:56;99296.89;;;7.57;62.69
22572;BME280;11452;53.368;14.658;2023-01-15T23:06:04;99292.80;;;7.59;62.50
22572;BME280;11452;53.368;14.658;2023-01-15T23:11:13;99311.80;;;7.60;62.25
22572;BME280;11452;53.368;14.658;2023-01-15T23:16:19;99319.64;;;7.61;62.26
22572;BME280;11452;53.368;14.658;2023-01-15T23:21:26;99321.20;;;7.58;62.32
22572;BME280;11452;53.368;14.658;2023-01-15T23:26:33;99319.48;;;7.57;62.10
22572;BME280;11452;53.368;14.658;2023-01-15T23:31:39;99327.50;;;7.43;62.20
22572;BME280;11452;53.368;14.658;2023-01-15T23:36:44;99325.38;;;7.36;62.24
22572;BME280;11452;53.368;14.658;2023-01-15T23:41:50;99324.52;;;7.35;62.35
22572;BME280;11452;53.368;14.658;2023-01-15T23:47:13;99333.45;;;7.27;62.70
22572;BME280;11452;53.368;14.658;2023-01-15T23:52:18;99327.66;;;7.27;63.06
22572;BME280;11452;53.368;14.658;2023-01-15T23:57:24;99332.41;;;7.29;63.29
